Terminal Aerodrome Forecast
Issued by NWS

Home | Current Version | Previous Version | Text Only | Print | Product List | Glossary On
Versions: 1 2 3 4 5 6 7 8 9 10 11 12 13 14
372
FTUS43 KABR 301732
TAFATY
TAF
KATY 301732Z 3018/0118 05019G27KT P6SM BKN250
     FM010000 03017G24KT P6SM RA OVC040
     FM010500 02017G24KT P6SM RASN OVC035
     FM010700 02018G25KT P6SM -SN OVC015
     FM011600 35018G26KT 5SM -RA BKN015=

USA.gov is the U.S. government's official web portal to all federal, state and local government web resources and services.